sensor_id;sensor_type;location;lat;lon;timestamp;pressure;altitude;pressure_sealevel;temperature;humidity
10470;BME280;5282;47.052;15.458;2022-09-03T00:01:10;97538.06;;;14.77;100.00
10470;BME280;5282;47.052;15.458;2022-09-03T00:03:43;97536.09;;;14.71;100.00
10470;BME280;5282;47.052;15.458;2022-09-03T00:06:15;97532.13;;;14.89;100.00
10470;BME280;5282;47.052;15.458;2022-09-03T00:08:47;97527.72;;;14.88;100.00
10470;BME280;5282;47.052;15.458;2022-09-03T00:11:24;97522.09;;;14.89;100.00
10470;BME280;5282;47.052;15.458;2022-09-03T00:13:56;97524.59;;;14.91;100.00
10470;BME280;5282;47.052;15.458;2022-09-03T00:16:30;97523.50;;;14.85;100.00
10470;BME280;5282;47.052;15.458;2022-09-03T00:19:02;97529.06;;;14.77;100.00
10470;BME280;5282;47.052;15.458;2022-09-03T00:21:36;97522.03;;;14.83;100.00
10470;BME280;5282;47.052;15.458;2022-09-03T00:24:06;97517.56;;;14.96;100.00
10470;BME280;5282;47.052;15.458;2022-09-03T00:26:34;97526.78;;;15.02;100.00
10470;BME280;5282;47.052;15.458;2022-09-03T00:29:08;97517.56;;;14.96;100.00
10470;BME280;5282;47.052;15.458;2022-09-03T00:31:38;97514.41;;;14.93;100.00
10470;BME280;5282;47.052;15.458;2022-09-03T00:34:14;97508.91;;;14.86;100.00
10470;BME280;5282;47.052;15.458;2022-09-03T00:36:44;97505.50;;;14.56;100.00
10470;BME280;5282;47.052;15.458;2022-09-03T00:39:12;97506.91;;;14.30;100.00
10470;BME280;5282;47.052;15.458;2022-09-03T00:41:50;97506.78;;;14.16;100.00
10470;BME280;5282;47.052;15.458;2022-09-03T00:45:02;97501.16;;;14.40;100.00
10470;BME280;5282;47.052;15.458;2022-09-03T00:47:47;97499.63;;;14.30;100.00
10470;BME280;5282;47.052;15.458;2022-09-03T00:50:26;97502.09;;;14.47;100.00
10470;BME280;5282;47.052;15.458;2022-09-03T00:53:03;97502.03;;;14.62;100.00
10470;BME280;5282;47.052;15.458;2022-09-03T00:55:40;97502.19;;;14.75;100.00
10470;BME280;5282;47.052;15.458;2022-09-03T00:58:28;97507.00;;;14.58;100.00
10470;BME280;5282;47.052;15.458;2022-09-03T01:01:05;97510.22;;;14.47;100.00
10470;BME280;5282;47.052;15.458;2022-09-03T01:03:41;97506.06;;;14.29;100.00
10470;BME280;5282;47.052;15.458;2022-09-03T01:06:18;97505.75;;;14.39;100.00
10470;BME280;5282;47.052;15.458;2022-09-03T01:08:57;97508.53;;;14.46;100.00
10470;BME280;5282;47.052;15.458;2022-09-03T01:11:38;97503.28;;;14.44;100.00
10470;BME280;5282;47.052;15.458;2022-09-03T01:14:20;97506.41;;;14.19;100.00
10470;BME280;5282;47.052;15.458;2022-09-03T01:16:55;97503.19;;;14.31;100.00
10470;BME280;5282;47.052;15.458;2022-09-03T01:19:46;97501.66;;;14.43;100.00
10470;BME280;5282;47.052;15.458;2022-09-03T01:22:31;97503.78;;;14.48;100.00
10470;BME280;5282;47.052;15.458;2022-09-03T01:25:13;97503.44;;;14.36;100.00
10470;BME280;5282;47.052;15.458;2022-09-03T01:27:58;97503.75;;;14.26;100.00
10470;BME280;5282;47.052;15.458;2022-09-03T01:30:29;97500.06;;;14.12;100.00
10470;BME280;5282;47.052;15.458;2022-09-03T01:33:00;97507.59;;;14.17;100.00
10470;BME280;5282;47.052;15.458;2022-09-03T01:35:33;97499.44;;;14.32;100.00
10470;BME280;5282;47.052;15.458;2022-09-03T01:38:14;97508.69;;;14.38;100.00
10470;BME280;5282;47.052;15.458;2022-09-03T01:40:53;97505.25;;;14.29;100.00
10470;BME280;5282;47.052;15.458;2022-09-03T01:43:50;97502.97;;;14.11;100.00
10470;BME280;5282;47.052;15.458;2022-09-03T01:46:23;97507.03;;;14.22;100.00
10470;BME280;5282;47.052;15.458;2022-09-03T01:49:03;97510.00;;;14.27;100.00
10470;BME280;5282;47.052;15.458;2022-09-03T01:51:32;97508.53;;;14.24;100.00
10470;BME280;5282;47.052;15.458;2022-09-03T01:57:17;97518.31;;;13.88;100.00
10470;BME280;5282;47.052;15.458;2022-09-03T01:59:56;97530.38;;;13.71;100.00
10470;BME280;5282;47.052;15.458;2022-09-03T02:02:28;97515.69;;;13.95;100.00
10470;BME280;5282;47.052;15.458;2022-09-03T02:04:58;97515.09;;;14.00;100.00
10470;BME280;5282;47.052;15.458;2022-09-03T02:07:30;97510.34;;;14.02;100.00
10470;BME280;5282;47.052;15.458;2022-09-03T02:09:59;97517.81;;;14.00;100.00
10470;BME280;5282;47.052;15.458;2022-09-03T02:12:29;97515.22;;;13.92;100.00
10470;BME280;5282;47.052;15.458;2022-09-03T02:15:02;97526.88;;;13.92;100.00
10470;BME280;5282;47.052;15.458;2022-09-03T02:17:31;97530.06;;;13.96;100.00
10470;BME280;5282;47.052;15.458;2022-09-03T02:20:03;97531.19;;;13.86;100.00
10470;BME280;5282;47.052;15.458;2022-09-03T02:22:33;97527.00;;;13.84;100.00
10470;BME280;5282;47.052;15.458;2022-09-03T02:25:08;97528.13;;;13.75;100.00
10470;BME280;5282;47.052;15.458;2022-09-03T02:27:37;97533.25;;;13.84;100.00
10470;BME280;5282;47.052;15.458;2022-09-03T02:30:07;97540.44;;;13.77;100.00
10470;BME280;5282;47.052;15.458;2022-09-03T02:32:35;97528.22;;;13.66;100.00
10470;BME280;5282;47.052;15.458;2022-09-03T02:35:04;97532.06;;;13.57;100.00
10470;BME280;5282;47.052;15.458;2022-09-03T02:37:31;97538.91;;;13.30;100.00
10470;BME280;5282;47.052;15.458;2022-09-03T02:39:58;97530.88;;;13.36;100.00
10470;BME280;5282;47.052;15.458;2022-09-03T02:42:25;97524.47;;;13.52;100.00
10470;BME280;5282;47.052;15.458;2022-09-03T02:44:56;97535.97;;;13.54;100.00
10470;BME280;5282;47.052;15.458;2022-09-03T02:47:30;97533.75;;;13.73;100.00
10470;BME280;5282;47.052;15.458;2022-09-03T02:49:58;97539.50;;;13.70;100.00
10470;BME280;5282;47.052;15.458;2022-09-03T02:52:25;97538.19;;;13.66;100.00
10470;BME280;5282;47.052;15.458;2022-09-03T02:54:52;97536.06;;;13.61;100.00
10470;BME280;5282;47.052;15.458;2022-09-03T02:57:21;97536.63;;;13.56;100.00
10470;BME280;5282;47.052;15.458;2022-09-03T02:59:48;97540.00;;;13.44;100.00
10470;BME280;5282;47.052;15.458;2022-09-03T03:02:16;97541.09;;;13.49;100.00
10470;BME280;5282;47.052;15.458;2022-09-03T03:04:44;97536.13;;;13.38;100.00
10470;BME280;5282;47.052;15.458;2022-09-03T03:07:11;97536.84;;;13.32;100.00
10470;BME280;5282;47.052;15.458;2022-09-03T03:09:58;97553.63;;;13.12;100.00
10470;BME280;5282;47.052;15.458;2022-09-03T03:12:28;97555.13;;;13.30;100.00
10470;BME280;5282;47.052;15.458;2022-09-03T03:14:58;97551.88;;;13.34;100.00
10470;BME280;5282;47.052;15.458;2022-09-03T03:17:25;97553.19;;;13.38;100.00
10470;BME280;5282;47.052;15.458;2022-09-03T03:19:54;97540.56;;;13.31;100.00
10470;BME280;5282;47.052;15.458;2022-09-03T03:22:22;97545.16;;;13.30;100.00
10470;BME280;5282;47.052;15.458;2022-09-03T03:24:50;97536.28;;;13.36;100.00
10470;BME280;5282;47.052;15.458;2022-09-03T03:27:18;97535.16;;;13.31;100.00
10470;BME280;5282;47.052;15.458;2022-09-03T03:29:47;97543.16;;;13.09;100.00
10470;BME280;5282;47.052;15.458;2022-09-03T03:32:17;97542.34;;;12.85;100.00
10470;BME280;5282;47.052;15.458;2022-09-03T03:34:44;97542.06;;;12.80;100.00
10470;BME280;5282;47.052;15.458;2022-09-03T03:37:13;97539.81;;;12.69;100.00
10470;BME280;5282;47.052;15.458;2022-09-03T03:39:41;97536.97;;;12.39;100.00
10470;BME280;5282;47.052;15.458;2022-09-03T03:42:07;97541.41;;;12.31;100.00
10470;BME280;5282;47.052;15.458;2022-09-03T03:44:34;97552.69;;;12.35;100.00
10470;BME280;5282;47.052;15.458;2022-09-03T03:47:01;97551.00;;;12.34;100.00
10470;BME280;5282;47.052;15.458;2022-09-03T03:49:30;97549.88;;;12.75;100.00
10470;BME280;5282;47.052;15.458;2022-09-03T03:51:57;97547.75;;;12.85;100.00
10470;BME280;5282;47.052;15.458;2022-09-03T03:54:25;97551.34;;;13.01;100.00
10470;BME280;5282;47.052;15.458;2022-09-03T03:56:52;97548.91;;;13.06;100.00
10470;BME280;5282;47.052;15.458;2022-09-03T03:59:19;97548.66;;;13.01;100.00
10470;BME280;5282;47.052;15.458;2022-09-03T04:01:46;97553.63;;;13.12;100.00
10470;BME280;5282;47.052;15.458;2022-09-03T04:04:15;97552.25;;;12.93;100.00
10470;BME280;5282;47.052;15.458;2022-09-03T04:06:45;97552.47;;;13.06;100.00
10470;BME280;5282;47.052;15.458;2022-09-03T04:09:12;97554.09;;;13.16;100.00
10470;BME280;5282;47.052;15.458;2022-09-03T04:11:40;97544.38;;;13.06;100.00
10470;BME280;5282;47.052;15.458;2022-09-03T04:14:07;97544.25;;;13.00;100.00
10470;BME280;5282;47.052;15.458;2022-09-03T04:16:34;97544.59;;;12.58;100.00
10470;BME280;5282;47.052;15.458;2022-09-03T04:19:02;97540.28;;;12.72;100.00
10470;BME280;5282;47.052;15.458;2022-09-03T04:21:29;97538.53;;;12.56;100.00
10470;BME280;5282;47.052;15.458;2022-09-03T04:23:58;97546.16;;;12.53;100.00
10470;BME280;5282;47.052;15.458;2022-09-03T04:26:27;97542.06;;;12.33;100.00
10470;BME280;5282;47.052;15.458;2022-09-03T04:28:58;97537.94;;;12.46;100.00
10470;BME280;5282;47.052;15.458;2022-09-03T04:31:26;97536.31;;;12.60;100.00
10470;BME280;5282;47.052;15.458;2022-09-03T04:33:53;97533.75;;;12.67;100.00
10470;BME280;5282;47.052;15.458;2022-09-03T04:36:24;97530.13;;;12.74;100.00
10470;BME280;5282;47.052;15.458;2022-09-03T04:38:53;97532.22;;;12.87;100.00
10470;BME280;5282;47.052;15.458;2022-09-03T04:41:22;97530.44;;;12.94;100.00
10470;BME280;5282;47.052;15.458;2022-09-03T04:43:53;97538.19;;;12.59;100.00
10470;BME280;5282;47.052;15.458;2022-09-03T04:46:26;97537.50;;;12.80;100.00
10470;BME280;5282;47.052;15.458;2022-09-03T04:49:07;97536.97;;;12.62;100.00
10470;BME280;5282;47.052;15.458;2022-09-03T04:51:35;97541.25;;;12.56;100.00
10470;BME280;5282;47.052;15.458;2022-09-03T04:54:03;97537.09;;;12.69;100.00
10470;BME280;5282;47.052;15.458;2022-09-03T04:56:31;97533.34;;;12.93;100.00
10470;BME280;5282;47.052;15.458;2022-09-03T04:59:01;97532.63;;;12.99;100.00
10470;BME280;5282;47.052;15.458;2022-09-03T05:01:32;97531.09;;;12.96;100.00
10470;BME280;5282;47.052;15.458;2022-09-03T05:04:00;97537.09;;;13.07;100.00
10470;BME280;5282;47.052;15.458;2022-09-03T05:06:29;97542.06;;;13.18;100.00
10470;BME280;5282;47.052;15.458;2022-09-03T05:08:56;97540.09;;;13.12;100.00
10470;BME280;5282;47.052;15.458;2022-09-03T05:11:24;97547.47;;;13.18;100.00
10470;BME280;5282;47.052;15.458;2022-09-03T05:13:54;97547.66;;;13.32;100.00
10470;BME280;5282;47.052;15.458;2022-09-03T05:16:22;97552.81;;;13.26;100.00
10470;BME280;5282;47.052;15.458;2022-09-03T05:18:53;97549.34;;;13.33;100.00
10470;BME280;5282;47.052;15.458;2022-09-03T05:21:21;97549.13;;;13.42;100.00
10470;BME280;5282;47.052;15.458;2022-09-03T05:23:49;97547.63;;;13.40;100.00
10470;BME280;5282;47.052;15.458;2022-09-03T05:26:18;97548.56;;;13.47;100.00
10470;BME280;5282;47.052;15.458;2022-09-03T05:28:46;97545.41;;;13.58;100.00
10470;BME280;5282;47.052;15.458;2022-09-03T05:31:14;97550.34;;;13.70;100.00
10470;BME280;5282;47.052;15.458;2022-09-03T05:33:43;97549.13;;;13.72;100.00
10470;BME280;5282;47.052;15.458;2022-09-03T05:36:13;97557.59;;;13.54;100.00
10470;BME280;5282;47.052;15.458;2022-09-03T05:38:40;97551.16;;;13.55;100.00
10470;BME280;5282;47.052;15.458;2022-09-03T05:41:10;97545.56;;;13.42;100.00
10470;BME280;5282;47.052;15.458;2022-09-03T05:43:37;97546.53;;;13.49;100.00
10470;BME280;5282;47.052;15.458;2022-09-03T05:46:05;97546.88;;;13.46;100.00
10470;BME280;5282;47.052;15.458;2022-09-03T05:48:35;97541.38;;;13.54;100.00
10470;BME280;5282;47.052;15.458;2022-09-03T05:51:05;97543.69;;;13.72;100.00
10470;BME280;5282;47.052;15.458;2022-09-03T05:53:36;97545.84;;;13.62;100.00
10470;BME280;5282;47.052;15.458;2022-09-03T05:56:06;97543.34;;;13.76;100.00
10470;BME280;5282;47.052;15.458;2022-09-03T05:58:37;97543.44;;;13.82;100.00
10470;BME280;5282;47.052;15.458;2022-09-03T06:01:09;97541.09;;;13.79;100.00
10470;BME280;5282;47.052;15.458;2022-09-03T06:03:36;97546.59;;;13.86;100.00
10470;BME280;5282;47.052;15.458;2022-09-03T06:06:04;97543.97;;;13.93;100.00
10470;BME280;5282;47.052;15.458;2022-09-03T06:08:31;97547.03;;;14.04;100.00
10470;BME280;5282;47.052;15.458;2022-09-03T06:11:00;97551.19;;;13.85;100.00
10470;BME280;5282;47.052;15.458;2022-09-03T06:13:29;97550.06;;;13.80;100.00
10470;BME280;5282;47.052;15.458;2022-09-03T06:15:58;97550.88;;;13.80;100.00
10470;BME280;5282;47.052;15.458;2022-09-03T06:18:26;97551.19;;;13.85;100.00
10470;BME280;5282;47.052;15.458;2022-09-03T06:20:53;97551.44;;;13.91;100.00
10470;BME280;5282;47.052;15.458;2022-09-03T06:23:20;97544.59;;;14.10;100.00
10470;BME280;5282;47.052;15.458;2022-09-03T06:25:47;97539.78;;;14.27;100.00
10470;BME280;5282;47.052;15.458;2022-09-03T06:28:16;97546.19;;;14.41;100.00
10470;BME280;5282;47.052;15.458;2022-09-03T06:30:42;97546.72;;;14.51;100.00
10470;BME280;5282;47.052;15.458;2022-09-03T06:33:09;97547.22;;;14.61;100.00
10470;BME280;5282;47.052;15.458;2022-09-03T06:35:36;97544.78;;;14.66;100.00
10470;BME280;5282;47.052;15.458;2022-09-03T06:38:03;97534.44;;;14.70;100.00
10470;BME280;5282;47.052;15.458;2022-09-03T06:40:31;97541.72;;;14.70;100.00
10470;BME280;5282;47.052;15.458;2022-09-03T06:42:58;97546.19;;;14.77;100.00
10470;BME280;5282;47.052;15.458;2022-09-03T06:45:29;97546.75;;;14.73;100.00
10470;BME280;5282;47.052;15.458;2022-09-03T06:47:57;97550.22;;;14.66;100.00
10470;BME280;5282;47.052;15.458;2022-09-03T06:50:24;97544.34;;;14.63;100.00
10470;BME280;5282;47.052;15.458;2022-09-03T06:52:53;97540.69;;;14.71;100.00
10470;BME280;5282;47.052;15.458;2022-09-03T06:55:20;97542.41;;;14.78;100.00
10470;BME280;5282;47.052;15.458;2022-09-03T06:57:48;97532.63;;;14.99;100.00
10470;BME280;5282;47.052;15.458;2022-09-03T07:00:16;97531.81;;;15.05;100.00
10470;BME280;5282;47.052;15.458;2022-09-03T07:02:44;97532.03;;;15.04;100.00
10470;BME280;5282;47.052;15.458;2022-09-03T07:05:13;97538.59;;;15.16;100.00
10470;BME280;5282;47.052;15.458;2022-09-03T07:07:41;97524.09;;;15.37;100.00
10470;BME280;5282;47.052;15.458;2022-09-03T07:10:09;97526.88;;;15.44;100.00
10470;BME280;5282;47.052;15.458;2022-09-03T07:12:38;97526.72;;;15.52;100.00
10470;BME280;5282;47.052;15.458;2022-09-03T07:15:06;97530.09;;;15.61;100.00
10470;BME280;5282;47.052;15.458;2022-09-03T07:17:36;97532.28;;;15.79;100.00
10470;BME280;5282;47.052;15.458;2022-09-03T07:20:05;97537.00;;;15.92;100.00
10470;BME280;5282;47.052;15.458;2022-09-03T07:22:32;97534.75;;;16.02;100.00
10470;BME280;5282;47.052;15.458;2022-09-03T07:24:59;97537.44;;;15.96;100.00
10470;BME280;5282;47.052;15.458;2022-09-03T07:27:27;97531.63;;;16.12;100.00
10470;BME280;5282;47.052;15.458;2022-09-03T07:29:54;97529.84;;;16.33;100.00
10470;BME280;5282;47.052;15.458;2022-09-03T07:32:21;97525.88;;;16.35;100.00
10470;BME280;5282;47.052;15.458;2022-09-03T07:34:48;97526.25;;;16.32;100.00
10470;BME280;5282;47.052;15.458;2022-09-03T07:37:18;97532.09;;;16.29;100.00
10470;BME280;5282;47.052;15.458;2022-09-03T07:39:45;97530.28;;;16.50;100.00
10470;BME280;5282;47.052;15.458;2022-09-03T07:42:12;97531.97;;;16.64;100.00
10470;BME280;5282;47.052;15.458;2022-09-03T07:44:39;97533.91;;;16.77;100.00
10470;BME280;5282;47.052;15.458;2022-09-03T07:47:05;97528.47;;;16.84;100.00
10470;BME280;5282;47.052;15.458;2022-09-03T07:49:32;97527.22;;;16.93;100.00
10470;BME280;5282;47.052;15.458;2022-09-03T07:52:01;97526.63;;;17.05;100.00
10470;BME280;5282;47.052;15.458;2022-09-03T07:54:29;97525.34;;;17.07;100.00
10470;BME280;5282;47.052;15.458;2022-09-03T07:56:56;97527.03;;;17.08;100.00
10470;BME280;5282;47.052;15.458;2022-09-03T07:59:24;97525.75;;;17.11;100.00
10470;BME280;5282;47.052;15.458;2022-09-03T08:01:51;97531.63;;;17.21;100.00
10470;BME280;5282;47.052;15.458;2022-09-03T08:04:17;97532.88;;;17.39;100.00
10470;BME280;5282;47.052;15.458;2022-09-03T08:06:45;97531.38;;;17.50;100.00
10470;BME280;5282;47.052;15.458;2022-09-03T08:09:13;97532.63;;;17.61;100.00
10470;BME280;5282;47.052;15.458;2022-09-03T08:11:42;97539.72;;;17.68;100.00
10470;BME280;5282;47.052;15.458;2022-09-03T08:14:11;97532.63;;;17.61;100.00
10470;BME280;5282;47.052;15.458;2022-09-03T08:16:39;97537.41;;;17.72;100.00
10470;BME280;5282;47.052;15.458;2022-09-03T08:19:09;97531.94;;;17.85;100.00
10470;BME280;5282;47.052;15.458;2022-09-03T08:21:38;97530.50;;;17.76;98.85
10470;BME280;5282;47.052;15.458;2022-09-03T08:24:06;97535.25;;;18.01;100.00
10470;BME280;5282;47.052;15.458;2022-09-03T08:26:35;97533.09;;;18.16;100.00
10470;BME280;5282;47.052;15.458;2022-09-03T08:29:04;97532.75;;;18.45;100.00
10470;BME280;5282;47.052;15.458;2022-09-03T08:31:32;97531.03;;;18.50;97.07
10470;BME280;5282;47.052;15.458;2022-09-03T08:34:00;97530.38;;;18.55;99.14
10470;BME280;5282;47.052;15.458;2022-09-03T08:36:32;97531.97;;;18.70;96.07
10470;BME280;5282;47.052;15.458;2022-09-03T08:39:01;97530.94;;;18.64;97.91
10470;BME280;5282;47.052;15.458;2022-09-03T08:41:40;97526.81;;;18.55;95.93
10470;BME280;5282;47.052;15.458;2022-09-03T08:44:21;97524.50;;;18.84;95.40
10470;BME280;5282;47.052;15.458;2022-09-03T08:46:51;97526.13;;;18.98;93.12
10470;BME280;5282;47.052;15.458;2022-09-03T08:49:23;97528.56;;;19.06;91.69
10470;BME280;5282;47.052;15.458;2022-09-03T08:51:54;97525.50;;;19.21;88.13
10470;BME280;5282;47.052;15.458;2022-09-03T08:54:25;97523.31;;;19.30;87.51
10470;BME280;5282;47.052;15.458;2022-09-03T08:56:59;97526.50;;;19.27;91.95
10470;BME280;5282;47.052;15.458;2022-09-03T08:59:29;97526.50;;;19.52;91.90
10470;BME280;5282;47.052;15.458;2022-09-03T09:01:59;97529.09;;;19.66;85.93
10470;BME280;5282;47.052;15.458;2022-09-03T09:04:41;97521.66;;;19.73;83.01
10470;BME280;5282;47.052;15.458;2022-09-03T09:07:18;97524.56;;;19.78;85.22
10470;BME280;5282;47.052;15.458;2022-09-03T09:09:52;97527.03;;;19.80;87.48
10470;BME280;5282;47.052;15.458;2022-09-03T09:12:29;97526.53;;;20.08;86.67
10470;BME280;5282;47.052;15.458;2022-09-03T09:15:07;97530.50;;;20.12;82.76
10470;BME280;5282;47.052;15.458;2022-09-03T09:17:53;97531.72;;;20.47;82.51
10470;BME280;5282;47.052;15.458;2022-09-03T09:20:28;97527.84;;;20.66;80.78
10470;BME280;5282;47.052;15.458;2022-09-03T09:23:00;97522.91;;;20.75;79.92
10470;BME280;5282;47.052;15.458;2022-09-03T09:25:28;97530.78;;;20.84;72.70
10470;BME280;5282;47.052;15.458;2022-09-03T09:27:59;97527.22;;;20.95;71.87
10470;BME280;5282;47.052;15.458;2022-09-03T09:30:31;97520.69;;;20.96;72.67
10470;BME280;5282;47.052;15.458;2022-09-03T09:32:58;97526.91;;;21.03;72.59
10470;BME280;5282;47.052;15.458;2022-09-03T09:35:25;97528.22;;;21.13;69.31
10470;BME280;5282;47.052;15.458;2022-09-03T09:37:54;97519.66;;;21.21;72.68
10470;BME280;5282;47.052;15.458;2022-09-03T09:40:23;97516.84;;;21.39;71.44
10470;BME280;5282;47.052;15.458;2022-09-03T09:43:01;97520.03;;;21.36;67.02
10470;BME280;5282;47.052;15.458;2022-09-03T09:45:29;97519.09;;;21.54;73.77
10470;BME280;5282;47.052;15.458;2022-09-03T09:47:58;97518.34;;;21.95;66.70
10470;BME280;5282;47.052;15.458;2022-09-03T09:53:00;97516.47;;;21.83;67.13
10470;BME280;5282;47.052;15.458;2022-09-03T09:55:31;97524.25;;;22.15;66.99
10470;BME280;5282;47.052;15.458;2022-09-03T09:58:07;97520.63;;;22.27;63.22
10470;BME280;5282;47.052;15.458;2022-09-03T10:00:37;97522.66;;;22.31;63.31
10470;BME280;5282;47.052;15.458;2022-09-03T10:03:09;97514.94;;;22.16;62.98
10470;BME280;5282;47.052;15.458;2022-09-03T10:05:38;97514.72;;;22.18;65.14
10470;BME280;5282;47.052;15.458;2022-09-03T10:08:16;97520.56;;;22.50;65.90
10470;BME280;5282;47.052;15.458;2022-09-03T10:10:46;97519.38;;;22.75;61.34
10470;BME280;5282;47.052;15.458;2022-09-03T10:13:17;97528.38;;;22.71;60.40
10470;BME280;5282;47.052;15.458;2022-09-03T10:15:49;97522.63;;;22.72;60.46
10470;BME280;5282;47.052;15.458;2022-09-03T10:18:23;97516.94;;;22.62;58.70
10470;BME280;5282;47.052;15.458;2022-09-03T10:20:59;97512.34;;;22.50;59.35
10470;BME280;5282;47.052;15.458;2022-09-03T10:23:32;97519.66;;;22.45;63.21
10470;BME280;5282;47.052;15.458;2022-09-03T10:26:04;97528.50;;;22.23;64.52
10470;BME280;5282;47.052;15.458;2022-09-03T10:28:34;97530.63;;;22.33;64.69
10470;BME280;5282;47.052;15.458;2022-09-03T10:31:27;97535.88;;;22.46;65.03
10470;BME280;5282;47.052;15.458;2022-09-03T10:34:02;97529.19;;;22.42;63.33
10470;BME280;5282;47.052;15.458;2022-09-03T10:36:36;97532.63;;;22.78;63.35
10470;BME280;5282;47.052;15.458;2022-09-03T10:39:20;97529.91;;;22.95;61.11
10470;BME280;5282;47.052;15.458;2022-09-03T10:42:00;97529.66;;;23.14;60.61
10470;BME280;5282;47.052;15.458;2022-09-03T10:44:43;97523.34;;;23.48;59.50
10470;BME280;5282;47.052;15.458;2022-09-03T10:47:29;97523.06;;;23.27;57.56
10470;BME280;5282;47.052;15.458;2022-09-03T10:50:08;97511.34;;;22.86;54.78
10470;BME280;5282;47.052;15.458;2022-09-03T10:52:58;97511.03;;;23.50;63.02
10470;BME280;5282;47.052;15.458;2022-09-03T10:55:40;97502.03;;;23.55;57.94
10470;BME280;5282;47.052;15.458;2022-09-03T10:58:24;97501.22;;;23.77;56.98
10470;BME280;5282;47.052;15.458;2022-09-03T11:01:02;97507.72;;;23.87;54.49
10470;BME280;5282;47.052;15.458;2022-09-03T11:03:42;97506.16;;;23.75;57.53
10470;BME280;5282;47.052;15.458;2022-09-03T11:06:14;97508.69;;;22.91;61.57
10470;BME280;5282;47.052;15.458;2022-09-03T11:08:48;97497.53;;;22.80;63.13
10470;BME280;5282;47.052;15.458;2022-09-03T11:11:20;97504.41;;;23.29;57.86
10470;BME280;5282;47.052;15.458;2022-09-03T11:13:55;97507.59;;;23.60;62.29
10470;BME280;5282;47.052;15.458;2022-09-03T11:16:26;97502.47;;;23.86;57.96
10470;BME280;5282;47.052;15.458;2022-09-03T11:18:59;97500.44;;;24.21;58.96
10470;BME280;5282;47.052;15.458;2022-09-03T11:21:30;97505.97;;;23.98;54.50
10470;BME280;5282;47.052;15.458;2022-09-03T11:24:07;97505.00;;;24.10;53.83
10470;BME280;5282;47.052;15.458;2022-09-03T11:26:37;97494.19;;;25.07;53.98
10470;BME280;5282;47.052;15.458;2022-09-03T11:29:10;97489.13;;;25.32;50.08
10470;BME280;5282;47.052;15.458;2022-09-03T11:31:47;97478.94;;;25.70;51.25
10470;BME280;5282;47.052;15.458;2022-09-03T11:34:29;97481.19;;;25.83;51.68
10470;BME280;5282;47.052;15.458;2022-09-03T11:37:15;97483.63;;;25.69;48.82
10470;BME280;5282;47.052;15.458;2022-09-03T11:39:44;97488.75;;;26.03;48.37
10470;BME280;5282;47.052;15.458;2022-09-03T11:42:28;97486.03;;;25.23;49.71
10470;BME280;5282;47.052;15.458;2022-09-03T11:45:11;97484.31;;;25.97;49.21
10470;BME280;5282;47.052;15.458;2022-09-03T11:47:40;97489.63;;;24.91;48.37
10470;BME280;5282;47.052;15.458;2022-09-03T11:50:19;97490.06;;;25.42;48.85
10470;BME280;5282;47.052;15.458;2022-09-03T11:52:46;97492.06;;;25.20;46.52
10470;BME280;5282;47.052;15.458;2022-09-03T11:55:29;97491.13;;;25.84;49.97
10470;BME280;5282;47.052;15.458;2022-09-03T11:57:58;97484.94;;;26.10;48.16
10470;BME280;5282;47.052;15.458;2022-09-03T12:00:36;97486.91;;;26.20;45.01
10470;BME280;5282;47.052;15.458;2022-09-03T12:03:04;97480.47;;;25.98;44.75
10470;BME280;5282;47.052;15.458;2022-09-03T12:05:41;97485.59;;;25.79;48.97
10470;BME280;5282;47.052;15.458;2022-09-03T12:11:38;97478.56;;;26.04;45.72
10470;BME280;5282;47.052;15.458;2022-09-03T12:14:12;97475.06;;;26.29;46.70
10470;BME280;5282;47.052;15.458;2022-09-03T12:19:38;97471.81;;;26.53;46.62
10470;BME280;5282;47.052;15.458;2022-09-03T12:22:13;97474.91;;;25.93;47.50
10470;BME280;5282;47.052;15.458;2022-09-03T12:24:40;97477.19;;;26.07;49.48
10470;BME280;5282;47.052;15.458;2022-09-03T12:27:14;97483.13;;;26.46;46.33
10470;BME280;5282;47.052;15.458;2022-09-03T12:29:51;97477.63;;;26.67;44.96
10470;BME280;5282;47.052;15.458;2022-09-03T12:32:22;97476.31;;;26.80;43.75
10470;BME280;5282;47.052;15.458;2022-09-03T12:34:49;97473.22;;;26.76;43.13
10470;BME280;5282;47.052;15.458;2022-09-03T12:37:20;97466.63;;;26.88;44.95
10470;BME280;5282;47.052;15.458;2022-09-03T12:39:52;97461.69;;;26.95;43.90
10470;BME280;5282;47.052;15.458;2022-09-03T12:42:23;97454.91;;;26.29;46.28
10470;BME280;5282;47.052;15.458;2022-09-03T12:44:52;97460.78;;;26.53;45.10
10470;BME280;5282;47.052;15.458;2022-09-03T12:47:21;97450.34;;;25.81;46.50
10470;BME280;5282;47.052;15.458;2022-09-03T12:49:50;97443.94;;;26.44;45.08
10470;BME280;5282;47.052;15.458;2022-09-03T12:52:25;97442.06;;;25.86;45.76
10470;BME280;5282;47.052;15.458;2022-09-03T12:54:56;97446.09;;;26.32;46.50
10470;BME280;5282;47.052;15.458;2022-09-03T12:57:26;97442.84;;;26.51;44.72
10470;BME280;5282;47.052;15.458;2022-09-03T13:00:03;97439.00;;;26.62;44.08
10470;BME280;5282;47.052;15.458;2022-09-03T13:02:36;97442.84;;;26.61;44.93
10470;BME280;5282;47.052;15.458;2022-09-03T13:05:11;97442.53;;;26.31;46.72
10470;BME280;5282;47.052;15.458;2022-09-03T13:07:44;97437.59;;;26.44;47.08
10470;BME280;5282;47.052;15.458;2022-09-03T13:10:23;97429.97;;;25.93;45.70
10470;BME280;5282;47.052;15.458;2022-09-03T13:12:51;97415.50;;;25.60;48.11
10470;BME280;5282;47.052;15.458;2022-09-03T13:15:24;97423.44;;;26.20;49.38
10470;BME280;5282;47.052;15.458;2022-09-03T13:18:09;97428.00;;;25.83;46.12
10470;BME280;5282;47.052;15.458;2022-09-03T13:20:51;97417.25;;;25.86;48.31
10470;BME280;5282;47.052;15.458;2022-09-03T13:23:35;97419.72;;;25.83;50.55
10470;BME280;5282;47.052;15.458;2022-09-03T13:26:16;97412.91;;;26.01;47.94
10470;BME280;5282;47.052;15.458;2022-09-03T13:29:06;97418.31;;;25.70;46.86